createdAt,value
2019-04-29T00:00:50.155Z,66.60
2019-04-29T00:03:17.497Z,66.50
2019-04-29T00:05:45.379Z,66.40
2019-04-29T00:08:13.720Z,66.50
2019-04-29T00:10:43.340Z,66.90
2019-04-29T00:13:11.759Z,66.90
2019-04-29T00:16:06.055Z,66.80
2019-04-29T00:18:48.944Z,66.40
2019-04-29T00:21:16.943Z,66.60
2019-04-29T00:23:44.195Z,66.60
2019-04-29T00:26:11.610Z,66.50
2019-04-29T00:28:40.237Z,66.60
2019-04-29T00:31:07.351Z,66.80
2019-04-29T00:33:34.811Z,66.60
2019-04-29T00:36:01.806Z,66.40
2019-04-29T00:38:47.899Z,66.10
2019-04-29T00:41:49.591Z,65.50
2019-04-29T00:44:17.832Z,65.60
2019-04-29T00:46:46.180Z,66.00
2019-04-29T00:49:13.871Z,66.50
2019-04-29T00:51:41.018Z,66.10
2019-04-29T00:54:16.148Z,66.10
2019-04-29T00:56:43.427Z,65.80
2019-04-29T00:59:11.204Z,65.70
2019-04-29T01:01:38.471Z,65.70
2019-04-29T01:04:06.288Z,65.70
2019-04-29T01:06:35.219Z,65.60
2019-04-29T01:09:03.864Z,66.00
2019-04-29T01:11:30.976Z,65.60
2019-04-29T01:13:59.023Z,65.60
2019-04-29T01:16:27.119Z,65.70
2019-04-29T01:18:54.375Z,65.60
2019-04-29T01:21:23.771Z,65.40
2019-04-29T01:23:51.263Z,65.50
2019-04-29T01:26:44.068Z,65.50
2019-04-29T01:29:12.316Z,66.00
2019-04-29T01:31:39.471Z,65.50
2019-04-29T01:34:12.363Z,65.60
2019-04-29T01:36:41.253Z,65.40
2019-04-29T01:39:11.243Z,65.60
2019-04-29T01:41:53.480Z,65.60
2019-04-29T01:44:21.400Z,65.60
2019-04-29T01:46:49.359Z,65.50
2019-04-29T01:49:17.249Z,65.60
2019-04-29T01:51:45.043Z,66.00
2019-04-29T01:54:12.879Z,66.00
2019-04-29T01:56:40.323Z,66.00
2019-04-29T01:59:07.724Z,65.70
2019-04-29T02:01:35.616Z,65.60
2019-04-29T02:04:03.576Z,65.50
2019-04-29T02:06:31.599Z,65.30
2019-04-29T02:08:59.796Z,65.10
2019-04-29T02:11:27.408Z,65.90
2019-04-29T02:13:54.655Z,65.50
2019-04-29T02:16:22.143Z,65.80
2019-04-29T02:18:49.139Z,65.20
2019-04-29T02:21:17.319Z,65.20
2019-04-29T02:23:57.292Z,65.40
2019-04-29T02:26:24.423Z,65.40
2019-04-29T02:28:52.423Z,65.50
2019-04-29T02:31:37.915Z,65.60
2019-04-29T02:34:05.374Z,65.60
2019-04-29T02:36:32.515Z,65.50
2019-04-29T02:39:32.125Z,65.70
2019-04-29T02:42:28.019Z,65.50
2019-04-29T02:44:57.861Z,65.70
2019-04-29T02:47:25.832Z,65.50
2019-04-29T02:49:55.086Z,65.60
2019-04-29T02:52:22.891Z,65.60
2019-04-29T02:54:52.060Z,65.80
2019-04-29T02:57:48.075Z,65.70
2019-04-29T03:00:27.654Z,66.00
2019-04-29T03:03:05.636Z,65.90
2019-04-29T03:05:44.701Z,65.80
2019-04-29T03:08:12.941Z,65.70
2019-04-29T03:10:40.315Z,65.70
2019-04-29T03:13:07.541Z,65.50
2019-04-29T03:15:39.251Z,65.50
2019-04-29T03:18:06.840Z,65.50
2019-04-29T03:20:45.000Z,64.80
2019-04-29T03:23:15.043Z,65.60
2019-04-29T03:25:42.303Z,65.40
2019-04-29T03:28:10.244Z,66.00
2019-04-29T03:30:37.537Z,65.80
2019-04-29T03:33:04.863Z,65.50
2019-04-29T03:35:32.925Z,65.40
2019-04-29T03:37:59.977Z,65.50
2019-04-29T03:40:27.481Z,65.10
2019-04-29T03:42:55.701Z,65.30
2019-04-29T03:45:23.617Z,65.30
2019-04-29T03:47:52.504Z,65.30
2019-04-29T03:50:21.070Z,65.30
2019-04-29T03:52:48.306Z,65.50
2019-04-29T03:55:16.938Z,65.80
2019-04-29T03:57:44.928Z,65.30
2019-04-29T04:00:14.721Z,65.20
2019-04-29T04:02:55.200Z,65.30
2019-04-29T04:05:35.673Z,65.30
2019-04-29T04:08:27.164Z,65.70
2019-04-29T04:10:54.335Z,65.60
2019-04-29T04:13:21.917Z,65.30
2019-04-29T04:15:49.545Z,65.00
2019-04-29T04:18:24.095Z,65.20
2019-04-29T04:20:51.710Z,65.40
2019-04-29T04:23:19.206Z,65.30
2019-04-29T04:25:46.668Z,65.20
2019-04-29T04:28:13.766Z,66.20
2019-04-29T04:30:41.397Z,65.50
2019-04-29T04:33:09.472Z,65.70
2019-04-29T04:35:37.297Z,65.60
2019-04-29T04:38:04.329Z,66.70
2019-04-29T04:40:37.259Z,65.80
2019-04-29T04:43:05.004Z,65.70
2019-04-29T04:45:32.333Z,66.70
2019-04-29T04:47:59.570Z,65.90
2019-04-29T04:50:26.876Z,65.90
2019-04-29T04:52:54.501Z,66.00
2019-04-29T04:55:24.423Z,66.10
2019-04-29T04:57:52.027Z,65.90
2019-04-29T05:00:22.132Z,66.40
2019-04-29T05:02:49.799Z,66.20
2019-04-29T05:05:17.183Z,66.30
2019-04-29T05:07:44.480Z,66.40
2019-04-29T05:10:12.252Z,66.90
2019-04-29T05:12:39.393Z,67.20
2019-04-29T05:15:06.751Z,66.80
2019-04-29T05:17:34.073Z,67.00
2019-04-29T05:20:02.815Z,67.00
2019-04-29T05:22:29.655Z,67.80
2019-04-29T05:24:58.375Z,67.60
2019-04-29T05:27:25.484Z,67.80
2019-04-29T05:29:52.648Z,68.20
2019-04-29T05:32:19.660Z,68.10
2019-04-29T05:34:50.013Z,68.50
2019-04-29T05:37:26.667Z,68.70
2019-04-29T05:39:54.023Z,68.50
2019-04-29T05:42:22.831Z,68.40
2019-04-29T05:44:59.188Z,68.10
2019-04-29T05:47:46.348Z,68.50
2019-04-29T05:50:39.271Z,68.60
2019-04-29T05:53:28.259Z,68.80
2019-04-29T05:55:55.656Z,69.20
2019-04-29T05:58:23.759Z,69.10
2019-04-29T06:01:01.040Z,69.30
2019-04-29T06:03:29.222Z,69.40
2019-04-29T06:05:57.544Z,69.60
2019-04-29T06:08:24.852Z,70.40
2019-04-29T06:10:52.099Z,70.80
2019-04-29T06:13:19.445Z,70.70
2019-04-29T06:15:48.552Z,70.40
2019-04-29T06:18:17.611Z,69.70
2019-04-29T06:20:45.315Z,69.30
2019-04-29T06:23:13.136Z,69.70
2019-04-29T06:25:40.400Z,69.80
2019-04-29T06:28:09.419Z,70.10
2019-04-29T06:30:40.464Z,69.70
2019-04-29T06:33:08.059Z,70.00
2019-04-29T06:35:35.220Z,70.30
2019-04-29T06:38:03.936Z,69.90
2019-04-29T06:40:35.289Z,70.00
2019-04-29T06:43:01.211Z,70.90
2019-04-29T06:45:28.510Z,70.60
2019-04-29T06:47:57.063Z,71.70
2019-04-29T06:50:24.987Z,72.10
2019-04-29T06:52:52.763Z,72.00
2019-04-29T06:55:19.936Z,72.00
2019-04-29T06:57:47.988Z,71.70
2019-04-29T07:00:17.689Z,71.60
2019-04-29T07:02:49.958Z,71.60
2019-04-29T07:05:15.415Z,72.30
2019-04-29T07:07:42.527Z,71.80
2019-04-29T07:10:12.069Z,72.10
2019-04-29T07:12:42.851Z,72.10
2019-04-29T07:15:12.191Z,71.00
2019-04-29T07:17:41.350Z,70.50
2019-04-29T07:20:07.576Z,70.90
2019-04-29T07:22:35.448Z,71.10
2019-04-29T07:25:02.952Z,71.40
2019-04-29T07:27:30.270Z,71.30
2019-04-29T07:30:01.877Z,71.50
2019-04-29T07:32:26.979Z,71.00
2019-04-29T07:34:53.975Z,70.90
2019-04-29T07:37:21.163Z,70.90
2019-04-29T07:39:49.151Z,70.90
2019-04-29T07:42:17.670Z,71.40
2019-04-29T07:45:03.921Z,71.20
2019-04-29T07:47:31.392Z,71.60
2019-04-29T07:49:58.387Z,71.70
2019-04-29T07:52:25.488Z,71.10
2019-04-29T07:54:56.039Z,71.50
2019-04-29T07:57:21.772Z,70.60
2019-04-29T07:59:49.363Z,70.60
2019-04-29T08:02:16.354Z,71.60
2019-04-29T08:04:45.920Z,70.90
2019-04-29T08:07:13.259Z,70.80
2019-04-29T08:09:44.160Z,69.90
2019-04-29T08:12:11.699Z,69.40
2019-04-29T08:14:39.276Z,69.10
2019-04-29T08:17:06.680Z,69.40
2019-04-29T08:19:33.735Z,69.00
2019-04-29T08:22:01.159Z,69.00
2019-04-29T08:24:28.748Z,68.90
2019-04-29T08:26:56.801Z,68.00
2019-04-29T08:29:25.208Z,68.10
2019-04-29T08:31:57.347Z,68.00
2019-04-29T08:34:24.219Z,68.20
2019-04-29T08:36:52.704Z,68.00
2019-04-29T08:39:19.560Z,67.80
2019-04-29T08:41:46.684Z,67.60
2019-04-29T08:44:42.583Z,67.70
2019-04-29T08:47:16.647Z,67.60
2019-04-29T08:49:44.488Z,67.10
2019-04-29T08:52:12.076Z,66.30
2019-04-29T08:54:39.274Z,66.80
2019-04-29T08:57:06.312Z,66.50
2019-04-29T08:59:34.215Z,66.20
2019-04-29T09:02:05.183Z,65.90
2019-04-29T09:04:33.350Z,66.30
2019-04-29T09:07:12.399Z,65.20
2019-04-29T09:09:31.112Z,64.80
2019-04-29T09:11:59.196Z,64.60
2019-04-29T09:14:26.920Z,64.50
2019-04-29T09:16:56.044Z,64.30
2019-04-29T09:19:23.643Z,64.20
2019-04-29T09:21:55.010Z,63.80
2019-04-29T09:24:22.328Z,63.70
2019-04-29T09:26:54.959Z,62.60
2019-04-29T09:29:35.048Z,62.40
2019-04-29T09:32:04.818Z,62.30
2019-04-29T09:34:32.299Z,61.70
2019-04-29T09:36:59.299Z,61.70
2019-04-29T09:39:27.924Z,61.50
2019-04-29T09:42:03.461Z,61.70
2019-04-29T09:44:47.011Z,61.70
2019-04-29T09:47:14.308Z,61.60
2019-04-29T09:49:42.020Z,61.70
2019-04-29T09:52:09.387Z,60.90
2019-04-29T09:54:37.780Z,60.70
2019-04-29T09:57:06.380Z,59.80
2019-04-29T09:59:39.000Z,59.60
2019-04-29T10:02:26.339Z,59.60
2019-04-29T10:05:01.479Z,59.70
2019-04-29T10:07:28.619Z,59.50
2019-04-29T10:09:57.318Z,59.40
2019-04-29T10:12:24.695Z,59.10
2019-04-29T10:14:52.188Z,59.00
2019-04-29T10:17:45.817Z,59.00
2019-04-29T10:20:17.395Z,58.80
2019-04-29T10:22:44.616Z,59.10
2019-04-29T10:25:13.129Z,58.90
2019-04-29T10:27:40.475Z,59.10
2019-04-29T10:30:08.725Z,58.50
2019-04-29T10:32:37.846Z,58.10
2019-04-29T10:35:08.724Z,57.10
2019-04-29T10:37:35.295Z,57.40
2019-04-29T10:40:35.399Z,57.40
2019-04-29T10:43:22.075Z,57.70
2019-04-29T10:46:10.871Z,57.80
2019-04-29T10:48:47.631Z,57.40
2019-04-29T10:51:15.435Z,57.90
2019-04-29T10:53:46.598Z,58.10
2019-04-29T10:56:12.828Z,58.20
2019-04-29T10:58:40.812Z,57.90
2019-04-29T11:02:13.396Z,58.00
2019-04-29T11:04:38.031Z,57.60
2019-04-29T11:07:25.940Z,57.90
2019-04-29T11:09:56.394Z,58.30
2019-04-29T11:12:23.554Z,58.20
2019-04-29T11:14:52.591Z,57.40
2019-04-29T11:17:24.371Z,58.40
2019-04-29T11:19:52.595Z,57.80
2019-04-29T11:22:21.878Z,58.00
2019-04-29T11:24:59.892Z,58.40
2019-04-29T11:27:31.323Z,58.20
2019-04-29T11:30:02.269Z,57.50
2019-04-29T11:32:35.030Z,58.00
2019-04-29T11:35:10.999Z,58.20
2019-04-29T11:37:38.671Z,57.90
2019-04-29T11:40:07.256Z,57.60
2019-04-29T11:42:36.789Z,57.70
2019-04-29T11:45:07.801Z,57.60
2019-04-29T11:47:35.051Z,57.50
2019-04-29T11:50:13.653Z,57.30
2019-04-29T11:52:41.235Z,57.20
2019-04-29T11:55:09.440Z,57.70
2019-04-29T11:57:49.528Z,57.40
2019-04-29T12:00:42.001Z,57.50
2019-04-29T12:03:14.404Z,57.40
2019-04-29T12:05:46.325Z,57.70
2019-04-29T12:08:17.084Z,57.60
2019-04-29T12:10:46.895Z,57.50
2019-04-29T12:13:18.977Z,57.30
2019-04-29T12:16:14.355Z,57.40
2019-04-29T12:18:47.168Z,57.30
2019-04-29T12:21:20.476Z,57.50
2019-04-29T12:23:52.058Z,57.50
2019-04-29T12:26:19.732Z,58.20
2019-04-29T12:28:46.936Z,57.30
2019-04-29T12:31:24.060Z,57.20
2019-04-29T12:34:00.748Z,57.30
2019-04-29T12:36:29.299Z,56.60
2019-04-29T12:39:42.767Z,57.20
2019-04-29T12:42:17.167Z,57.20
2019-04-29T12:44:49.796Z,57.20
2019-04-29T12:47:26.867Z,57.40
2019-04-29T12:49:52.764Z,57.30
2019-04-29T12:52:21.286Z,57.30
2019-04-29T12:54:48.800Z,57.20
2019-04-29T12:57:18.807Z,57.20
2019-04-29T12:59:45.763Z,57.00
2019-04-29T13:02:24.506Z,57.10
2019-04-29T13:05:09.363Z,57.10
2019-04-29T13:07:54.171Z,57.10
2019-04-29T13:10:27.331Z,57.30
2019-04-29T13:12:57.879Z,57.40
2019-04-29T13:15:37.295Z,57.00
2019-04-29T13:18:13.881Z,56.80
2019-04-29T13:20:41.643Z,56.60
2019-04-29T13:23:17.705Z,57.10
2019-04-29T13:25:38.586Z,56.90
2019-04-29T13:28:06.081Z,56.70
2019-04-29T13:30:33.079Z,56.70
2019-04-29T13:33:05.924Z,56.60
2019-04-29T13:35:32.323Z,56.60
2019-04-29T13:37:59.496Z,56.60
2019-04-29T13:40:28.247Z,56.40
2019-04-29T13:42:57.175Z,57.20
2019-04-29T13:45:31.746Z,56.80
2019-04-29T13:48:09.178Z,57.30
2019-04-29T13:50:57.032Z,57.20
2019-04-29T13:53:25.675Z,59.30
2019-04-29T13:56:10.473Z,59.60
2019-04-29T13:58:27.165Z,61.80
2019-04-29T14:01:23.900Z,61.70
2019-04-29T14:03:51.788Z,60.20
2019-04-29T14:06:19.914Z,59.90
2019-04-29T14:08:48.497Z,60.60
2019-04-29T14:11:15.507Z,60.00
2019-04-29T14:13:48.179Z,61.30
2019-04-29T14:16:13.343Z,60.60
2019-04-29T14:18:43.657Z,61.80
2019-04-29T14:21:11.971Z,60.30
2019-04-29T14:23:39.324Z,61.20
2019-04-29T14:26:07.403Z,61.90
2019-04-29T14:28:36.497Z,61.30
2019-04-29T14:31:04.128Z,61.50
2019-04-29T14:33:36.885Z,59.50
2019-04-29T14:36:07.047Z,58.50
2019-04-29T14:38:36.027Z,57.90
2019-04-29T14:41:04.628Z,58.50
2019-04-29T14:43:57.927Z,58.90
2019-04-29T14:46:44.612Z,57.80
2019-04-29T14:49:15.955Z,57.90
2019-04-29T14:51:43.235Z,57.50
2019-04-29T14:54:11.127Z,57.50
2019-04-29T14:56:38.167Z,58.40
2019-04-29T14:59:07.789Z,58.40
2019-04-29T15:01:50.649Z,58.40
2019-04-29T15:04:21.193Z,58.10
2019-04-29T15:06:48.509Z,57.10
2019-04-29T15:09:18.165Z,57.10
2019-04-29T15:11:58.816Z,57.20
2019-04-29T15:15:03.419Z,56.30
2019-04-29T15:17:51.852Z,57.10
2019-04-29T15:20:41.419Z,56.70
2019-04-29T15:23:10.748Z,56.40
2019-04-29T15:25:38.303Z,56.80
2019-04-29T15:28:06.136Z,56.70
2019-04-29T15:30:36.680Z,56.40
2019-04-29T15:33:02.163Z,56.60
2019-04-29T15:35:29.667Z,56.60
2019-04-29T15:37:57.204Z,56.70
2019-04-29T15:40:26.423Z,57.20
2019-04-29T15:42:54.375Z,57.80
2019-04-29T15:45:21.908Z,57.80
2019-04-29T15:47:50.068Z,57.80
2019-04-29T15:50:19.304Z,58.40
2019-04-29T15:52:47.597Z,59.10
2019-04-29T15:55:15.961Z,60.10
2019-04-29T15:57:49.573Z,61.00
2019-04-29T16:00:21.871Z,61.40
2019-04-29T16:02:44.222Z,61.60
2019-04-29T16:05:24.304Z,61.80
2019-04-29T16:08:04.363Z,63.40
2019-04-29T16:10:57.828Z,64.90
2019-04-29T16:13:27.742Z,66.00
2019-04-29T16:15:51.784Z,66.30
2019-04-29T16:18:19.252Z,65.60
2019-04-29T16:20:53.766Z,66.90
2019-04-29T16:23:17.827Z,67.60
2019-04-29T16:25:46.343Z,68.90
2019-04-29T16:28:14.316Z,70.30
2019-04-29T16:30:41.439Z,70.40
2019-04-29T16:33:13.900Z,71.00
2019-04-29T16:35:39.121Z,71.70
2019-04-29T16:38:11.640Z,72.00
2019-04-29T16:40:41.272Z,72.80
2019-04-29T16:43:37.991Z,73.40
2019-04-29T16:46:35.564Z,72.50
2019-04-29T16:48:58.792Z,73.20
2019-04-29T16:51:27.014Z,74.80
2019-04-29T16:53:54.443Z,74.60
2019-04-29T16:56:21.703Z,75.00
2019-04-29T16:58:49.218Z,75.60
2019-04-29T17:01:16.267Z,74.90
2019-04-29T17:03:43.967Z,76.80
2019-04-29T17:06:11.951Z,77.10
2019-04-29T17:09:03.574Z,77.50
2019-04-29T17:11:28.551Z,77.70
2019-04-29T17:13:55.499Z,77.70
2019-04-29T17:16:24.804Z,78.60
2019-04-29T17:18:53.063Z,79.40
2019-04-29T17:21:20.128Z,79.80
2019-04-29T17:23:48.176Z,80.50
2019-04-29T17:26:16.171Z,79.00
2019-04-29T17:28:53.666Z,79.40
2019-04-29T17:31:56.229Z,79.50
2019-04-29T17:34:44.039Z,78.00
2019-04-29T17:36:48.603Z,78.60
2019-04-29T17:39:16.839Z,78.60
2019-04-29T17:41:43.893Z,79.30
2019-04-29T17:44:46.672Z,78.50
2019-04-29T17:47:26.467Z,78.70
2019-04-29T17:50:02.088Z,78.10
2019-04-29T17:52:29.996Z,77.90
2019-04-29T17:55:21.507Z,77.90
2019-04-29T17:57:54.932Z,77.90
2019-04-29T18:00:44.475Z,77.00
2019-04-29T18:03:21.223Z,77.50
2019-04-29T18:06:08.292Z,77.10
2019-04-29T18:08:41.847Z,77.10
2019-04-29T18:11:09.573Z,77.90
2019-04-29T18:13:37.515Z,78.00
2019-04-29T18:16:17.323Z,77.70
2019-04-29T18:18:53.550Z,77.90
2019-04-29T18:21:47.334Z,77.40
2019-04-29T18:24:35.992Z,77.00
2019-04-29T18:27:06.071Z,77.60
2019-04-29T18:29:40.882Z,78.20
2019-04-29T18:32:05.175Z,77.60
2019-04-29T18:34:33.770Z,77.70
2019-04-29T18:37:01.661Z,76.40
2019-04-29T18:39:31.679Z,77.00
2019-04-29T18:42:03.265Z,77.00
2019-04-29T18:44:29.604Z,76.80
2019-04-29T18:46:57.856Z,77.20
2019-04-29T18:49:26.127Z,77.10
2019-04-29T18:51:57.900Z,77.20
2019-04-29T18:54:25.407Z,77.80
2019-04-29T18:56:52.953Z,77.30
2019-04-29T18:59:30.425Z,77.00
2019-04-29T19:01:50.915Z,77.50
2019-04-29T19:04:30.152Z,77.90
2019-04-29T19:07:02.148Z,77.90
2019-04-29T19:09:32.290Z,77.60
2019-04-29T19:11:59.835Z,78.10
2019-04-29T19:14:28.367Z,77.70
2019-04-29T19:17:00.196Z,77.90
2019-04-29T19:19:25.346Z,78.20
2019-04-29T19:21:53.269Z,78.40
2019-04-29T19:24:20.447Z,78.60
2019-04-29T19:26:48.884Z,79.00
2019-04-29T19:29:16.308Z,79.70
2019-04-29T19:31:48.612Z,79.30
2019-04-29T19:34:14.801Z,79.50
2019-04-29T19:36:45.013Z,79.50
2019-04-29T19:39:17.014Z,80.30
2019-04-29T19:41:49.338Z,81.20
2019-04-29T19:44:15.534Z,80.90
2019-04-29T19:46:45.335Z,81.30
2019-04-29T19:49:12.751Z,81.10
2019-04-29T19:51:43.578Z,81.20
2019-04-29T19:54:10.327Z,81.70
2019-04-29T19:56:38.236Z,82.80
2019-04-29T19:59:11.843Z,83.10
2019-04-29T20:01:37.933Z,83.50
2019-04-29T20:04:30.369Z,83.10
2019-04-29T20:07:05.960Z,83.80
2019-04-29T20:09:29.210Z,83.30
2019-04-29T20:11:57.725Z,83.70
2019-04-29T20:14:30.189Z,83.90
2019-04-29T20:17:12.922Z,84.00
2019-04-29T20:19:41.611Z,84.30
2019-04-29T20:22:09.824Z,85.00
2019-04-29T20:24:38.590Z,84.20
2019-04-29T20:27:09.604Z,85.00
2019-04-29T20:29:38.729Z,85.80
2019-04-29T20:32:07.912Z,84.80
2019-04-29T20:34:36.202Z,85.20
2019-04-29T20:37:05.900Z,85.40
2019-04-29T20:39:35.711Z,85.20
2019-04-29T20:42:08.666Z,84.70
2019-04-29T20:44:36.590Z,85.00
2019-04-29T20:47:16.517Z,85.10
2019-04-29T20:49:35.945Z,85.10
2019-04-29T20:52:25.800Z,85.10
2019-04-29T20:55:00.742Z,85.40
2019-04-29T20:57:25.691Z,85.30
2019-04-29T20:59:52.529Z,84.90
2019-04-29T21:02:30.314Z,85.60
2019-04-29T21:04:48.641Z,85.60
2019-04-29T21:07:17.115Z,85.40
2019-04-29T21:09:45.736Z,85.70
2019-04-29T21:12:39.232Z,85.70
2019-04-29T21:15:14.981Z,85.70
2019-04-29T21:17:41.593Z,85.50
2019-04-29T21:20:08.907Z,85.70
2019-04-29T21:22:36.687Z,86.00
2019-04-29T21:25:03.915Z,85.70
2019-04-29T21:27:31.730Z,86.00
2019-04-29T21:29:59.100Z,85.70
2019-04-29T21:32:26.551Z,85.90
2019-04-29T21:35:10.167Z,85.80
2019-04-29T21:37:54.560Z,86.20
2019-04-29T21:40:36.241Z,85.90
2019-04-29T21:43:13.496Z,86.20
2019-04-29T21:45:39.785Z,85.80
2019-04-29T21:48:07.371Z,85.80
2019-04-29T21:50:37.979Z,86.20
2019-04-29T21:53:05.715Z,86.70
2019-04-29T21:55:33.205Z,86.80
2019-04-29T21:58:00.724Z,86.80
2019-04-29T22:00:28.499Z,86.80
2019-04-29T22:02:58.925Z,86.70
2019-04-29T22:05:26.187Z,86.50
2019-04-29T22:07:53.444Z,86.80
2019-04-29T22:10:25.245Z,86.80
2019-04-29T22:12:58.453Z,86.60
2019-04-29T22:15:30.663Z,86.60
2019-04-29T22:17:56.595Z,86.50
2019-04-29T22:20:19.382Z,86.70
2019-04-29T22:22:47.850Z,86.80
2019-04-29T22:25:15.900Z,86.30
2019-04-29T22:27:44.996Z,86.50
2019-04-29T22:30:16.788Z,86.90
2019-04-29T22:32:46.870Z,86.70
2019-04-29T22:35:13.363Z,86.70
2019-04-29T22:37:40.987Z,86.70
2019-04-29T22:40:08.775Z,86.50
2019-04-29T22:42:42.420Z,87.00
2019-04-29T22:45:09.772Z,86.50
2019-04-29T22:47:36.780Z,86.80
2019-04-29T22:50:04.820Z,87.20
2019-04-29T22:52:32.555Z,86.60
2019-04-29T22:55:01.824Z,86.90
2019-04-29T22:57:31.647Z,87.10
2019-04-29T22:59:58.484Z,87.00
2019-04-29T23:02:28.443Z,86.80
2019-04-29T23:04:55.223Z,86.70
2019-04-29T23:07:23.476Z,85.70
2019-04-29T23:09:51.587Z,86.30
2019-04-29T23:12:18.823Z,86.70
2019-04-29T23:14:46.046Z,86.50
2019-04-29T23:17:13.405Z,86.00
2019-04-29T23:19:42.335Z,86.50
2019-04-29T23:22:26.319Z,86.00
2019-04-29T23:25:05.574Z,86.60
2019-04-29T23:27:32.847Z,85.80
2019-04-29T23:30:00.559Z,86.60
2019-04-29T23:32:28.907Z,86.10
2019-04-29T23:35:01.695Z,85.90
2019-04-29T23:37:27.650Z,86.00
2019-04-29T23:39:55.812Z,85.80
2019-04-29T23:42:23.808Z,86.10
2019-04-29T23:44:51.823Z,85.90
2019-04-29T23:47:18.771Z,86.00
2019-04-29T23:49:46.874Z,85.50
2019-04-29T23:52:16.030Z,85.70
2019-04-29T23:54:48.289Z,86.10
2019-04-29T23:57:35.897Z,85.80
